Time;durP1;ratioP1;P1;durP2;ratioP2;P2;SDS_P1;SDS_P2;PMS_P1;PMS_P2;Temp;Humidity;BMP_temperature;BMP_pressure;BME280_temperature;BME280_humidity;BME280_pressure;Samples;Min_cycle;Max_cycle;Signal;HPM_P1;HPM_P2
2023/03/23 00:00:15;;;;;;;0.50;0.50;;;;;;;11.13;100.00;99422.81;5033685;28;20197;-67
2023/03/23 00:02:43;;;;;;;0.47;0.47;;;;;;;11.13;100.00;99425.38;5032724;28;20224;-67
2023/03/23 00:05:11;;;;;;;0.53;0.53;;;;;;;11.12;100.00;99417.72;5032844;28;20206;-67
2023/03/23 00:07:44;;;;;;;0.53;0.53;;;;;;;11.13;100.00;99417.66;5032722;28;20556;-67
2023/03/23 00:10:11;;;;;;;0.50;0.50;;;;;;;11.11;100.00;99424.59;5038118;28;20256;-67
2023/03/23 00:12:41;;;;;;;0.40;0.40;;;;;;;11.11;100.00;99422.03;5043601;28;20204;-67
2023/03/23 00:15:12;;;;;;;0.60;0.60;;;;;;;11.12;100.00;99415.97;5030857;28;20609;-67
2023/03/23 00:17:40;;;;;;;0.90;0.90;;;;;;;11.13;100.00;99420.25;5036113;28;20217;-67
2023/03/23 00:20:11;;;;;;;0.40;0.40;;;;;;;11.10;100.00;99417.78;5027478;28;20209;-67
2023/03/23 00:22:40;;;;;;;0.40;0.40;;;;;;;11.11;100.00;99418.63;5028389;28;20279;-67
2023/03/23 00:25:09;;;;;;;0.73;0.73;;;;;;;11.13;100.00;99419.38;5044188;28;20196;-67
2023/03/23 00:27:35;;;;;;;0.40;0.40;;;;;;;11.12;100.00;99413.41;5038061;28;20228;-66
2023/03/23 00:30:02;;;;;;;0.63;0.63;;;;;;;11.10;100.00;99417.78;5031724;28;20203;-67
2023/03/23 00:32:29;;;;;;;0.60;0.60;;;;;;;11.06;100.00;99413.63;5032132;28;20247;-67
2023/03/23 00:34:58;;;;;;;0.50;0.50;;;;;;;10.86;100.00;99395.44;5023755;28;20213;-67
2023/03/23 00:37:25;;;;;;;0.40;0.40;;;;;;;10.94;100.00;99414.00;5027649;28;20217;-67
2023/03/23 00:39:57;;;;;;;0.50;0.50;;;;;;;10.95;100.00;99415.69;5047154;28;20205;-67
2023/03/23 00:42:24;;;;;;;0.63;0.63;;;;;;;10.97;100.00;99416.47;5041306;28;20628;-67
2023/03/23 00:44:53;;;;;;;0.60;0.60;;;;;;;10.98;100.00;99413.88;5049831;28;20200;-66
2023/03/23 00:47:20;;;;;;;0.50;0.50;;;;;;;10.99;100.00;99412.97;5031956;28;20194;-67
2023/03/23 00:49:47;;;;;;;0.60;0.60;;;;;;;10.98;100.00;99413.03;5038613;28;20233;-67
2023/03/23 00:52:14;;;;;;;0.47;0.47;;;;;;;10.95;100.00;99408.81;5037287;28;20200;-67
2023/03/23 00:54:41;;;;;;;0.53;0.53;;;;;;;10.96;100.00;99409.66;5039076;28;20213;-66
2023/03/23 00:57:09;;;;;;;0.60;0.60;;;;;;;10.96;100.00;99399.41;5028624;28;20209;-67
2023/03/23 00:59:36;;;;;;;0.40;0.40;;;;;;;10.94;100.00;99396.06;5031908;28;20229;-67
2023/03/23 01:02:03;;;;;;;0.43;0.43;;;;;;;10.95;100.00;99408.81;5049484;28;20632;-67
2023/03/23 01:04:31;;;;;;;0.50;0.50;;;;;;;10.92;100.00;99405.53;5028520;28;20198;-67
2023/03/23 01:07:00;;;;;;;0.57;0.57;;;;;;;10.87;100.00;99394.56;5030746;28;20720;-67
2023/03/23 01:09:29;;;;;;;0.53;0.53;;;;;;;10.89;100.00;99400.47;5031017;28;20288;-67
2023/03/23 01:11:56;;;;;;;0.57;0.57;;;;;;;10.88;100.00;99406.50;5031904;28;20199;-67
2023/03/23 01:14:25;;;;;;;0.40;0.40;;;;;;;10.84;100.00;99407.50;5031474;28;20739;-67
2023/03/23 01:16:52;;;;;;;0.63;0.63;;;;;;;10.83;100.00;99414.34;5051339;28;20235;-67
2023/03/23 01:19:19;;;;;;;0.40;0.40;;;;;;;10.78;100.00;99400.84;5034240;28;20206;-66
2023/03/23 01:21:46;;;;;;;0.97;0.97;;;;;;;10.79;100.00;99397.34;5022988;28;20292;-67
2023/03/23 01:24:12;;;;;;;0.37;0.37;;;;;;;10.76;100.00;99401.78;5026767;28;20668;-66
2023/03/23 01:26:39;;;;;;;0.50;0.50;;;;;;;10.74;100.00;99398.41;5038593;28;20673;-67
2023/03/23 01:29:06;;;;;;;0.43;0.43;;;;;;;10.71;100.00;99403.63;5028296;28;20205;-67
2023/03/23 01:31:36;;;;;;;0.57;0.57;;;;;;;10.68;100.00;99398.59;5030270;28;20292;-67
2023/03/23 01:34:03;;;;;;;0.57;0.57;;;;;;;10.64;100.00;99397.84;5030919;28;20608;-67
2023/03/23 01:36:32;;;;;;;0.53;0.53;;;;;;;10.58;100.00;99399.75;5030194;28;20719;-66
2023/03/23 01:39:00;;;;;;;0.73;0.73;;;;;;;10.58;100.00;99399.75;5035937;28;20263;-67
2023/03/23 01:41:28;;;;;;;0.40;0.40;;;;;;;10.56;100.00;99396.41;5035414;28;20201;-66
2023/03/23 01:43:58;;;;;;;0.80;0.80;;;;;;;10.53;100.00;99395.59;5031588;28;20207;-67
2023/03/23 01:46:27;;;;;;;0.90;0.60;;;;;;;10.35;100.00;99375.66;5045767;28;20206;-66
2023/03/23 01:48:58;;;;;;;0.60;0.60;;;;;;;10.47;100.00;99403.47;5048541;28;20284;-67
2023/03/23 01:51:27;;;;;;;0.40;0.40;;;;;;;10.42;100.00;99405.34;5030524;28;20197;-66
2023/03/23 01:53:57;;;;;;;1.23;1.23;;;;;;;10.40;100.00;99401.16;5042340;28;20209;-67
2023/03/23 01:56:29;;;;;;;0.47;0.47;;;;;;;10.37;100.00;99393.56;5034283;28;20211;-67
2023/03/23 01:58:57;;;;;;;0.50;0.50;;;;;;;10.35;100.00;99406.41;5034814;28;20204;-67
2023/03/23 02:01:26;;;;;;;0.47;0.47;;;;;;;10.27;100.00;99392.13;5050506;28;20196;-67
2023/03/23 02:03:57;;;;;;;0.50;0.50;;;;;;;10.29;100.00;99409.13;5031307;28;20223;-67
2023/03/23 02:06:25;;;;;;;1.03;1.03;;;;;;;10.16;100.00;99406.97;5029954;28;20692;-67
2023/03/23 02:08:53;;;;;;;1.00;0.70;;;;;;;10.08;100.00;99389.22;5027520;28;20213;-67
2023/03/23 02:11:22;;;;;;;0.40;0.40;;;;;;;10.13;100.00;99400.19;5029577;28;20201;-67
2023/03/23 02:13:50;;;;;;;0.57;0.57;;;;;;;10.10;100.00;99402.00;5036765;28;20685;-67
2023/03/23 02:16:28;;;;;;;0.80;0.80;;;;;;;10.00;100.00;99393.72;5029291;28;20699;-67
2023/03/23 02:19:05;;;;;;;0.70;0.70;;;;;;;10.06;100.00;99414.03;5042150;28;20196;-67
2023/03/23 02:22:08;;;;;;;0.50;0.50;;;;;;;10.02;100.00;99412.44;5027646;28;20280;-67
2023/03/23 02:25:08;;;;;;;0.67;0.67;;;;;;;9.97;100.00;99415.16;5033585;28;20200;-67
2023/03/23 02:28:07;;;;;;;0.50;0.50;;;;;;;9.93;100.00;99421.22;5047718;28;20209;-67
2023/03/23 02:31:16;;;;;;;0.70;0.70;;;;;;;9.90;100.00;99418.75;5046173;28;20283;-67
2023/03/23 02:33:50;;;;;;;0.70;0.70;;;;;;;9.88;100.00;99420.53;5023528;28;20664;-67
2023/03/23 02:36:24;;;;;;;0.70;0.70;;;;;;;9.66;100.00;99392.97;5030562;28;20204;-67
2023/03/23 02:39:00;;;;;;;0.43;0.43;;;;;;;9.66;100.00;99403.22;5032763;28;20210;-67
2023/03/23 02:41:32;;;;;;;0.50;0.50;;;;;;;9.76;100.00;99425.09;5050238;28;20200;-67
2023/03/23 02:44:00;;;;;;;0.53;0.53;;;;;;;9.73;100.00;99425.19;5033193;28;20208;-67
2023/03/23 02:46:28;;;;;;;0.53;0.53;;;;;;;9.72;100.00;99426.09;5030028;28;20209;-67
2023/03/23 02:49:00;;;;;;;0.63;0.63;;;;;;;9.72;100.00;99428.66;5053955;28;20193;-67
2023/03/23 02:51:27;;;;;;;0.40;0.40;;;;;;;9.65;100.00;99427.97;5034152;28;20201;-67
2023/03/23 02:53:57;;;;;;;0.53;0.53;;;;;;;9.57;100.00;99422.19;5038164;28;20262;-67
2023/03/23 02:56:27;;;;;;;0.53;0.53;;;;;;;9.46;100.00;99417.38;5053085;28;20204;-66
2023/03/23 02:58:54;;;;;;;0.50;0.50;;;;;;;9.43;100.00;99422.53;5037837;28;20230;-67
2023/03/23 03:01:52;;;;;;;0.50;0.50;;;;;;;9.37;100.00;99422.69;5045311;28;20271;-66
2023/03/23 03:04:23;;;;;;;0.50;0.50;;;;;;;9.28;100.00;99422.06;5033273;28;20198;-67
2023/03/23 03:07:03;;;;;;;0.40;0.40;;;;;;;9.14;100.00;99411.34;5039607;28;20198;-67
2023/03/23 03:09:37;;;;;;;0.43;0.43;;;;;;;9.13;100.00;99422.47;5034521;28;20462;-66
2023/03/23 03:12:10;;;;;;;0.50;0.50;;;;;;;9.06;100.00;99426.88;5052326;28;20204;-67
2023/03/23 03:14:42;;;;;;;0.50;0.50;;;;;;;9.00;100.00;99427.03;5031162;28;20685;-67
2023/03/23 03:17:14;;;;;;;0.53;0.53;;;;;;;8.98;100.00;99427.94;5030749;28;20712;-67
2023/03/23 03:19:46;;;;;;;0.60;0.60;;;;;;;8.91;100.00;99427.25;5035894;28;20209;-66
2023/03/23 03:22:14;;;;;;;0.90;0.90;;;;;;;8.94;100.00;99447.63;5044463;28;20247;-67
2023/03/23 03:24:43;;;;;;;0.77;0.77;;;;;;;8.88;100.00;99442.66;5033856;28;20213;-66
2023/03/23 03:27:14;;;;;;;0.67;0.67;;;;;;;8.67;100.00;99427.78;5048387;28;20197;-67
2023/03/23 03:29:42;;;;;;;0.40;0.40;;;;;;;8.74;100.00;99450.63;5042829;28;20204;-66
2023/03/23 03:32:14;;;;;;;0.50;0.50;;;;;;;8.68;100.00;99449.91;5032722;28;20228;-67
2023/03/23 03:34:42;;;;;;;0.50;0.50;;;;;;;8.68;100.00;99450.75;5033822;28;20201;-67
2023/03/23 03:37:11;;;;;;;0.60;0.60;;;;;;;8.68;100.00;99444.81;5026669;28;20628;-67
2023/03/23 03:39:39;;;;;;;0.40;0.40;;;;;;;8.70;100.00;99459.22;5028701;28;20288;-67
2023/03/23 03:42:06;;;;;;;0.50;0.50;;;;;;;8.66;100.00;99452.47;5032552;28;20236;-66
2023/03/23 03:44:33;;;;;;;0.50;0.50;;;;;;;8.64;100.00;99443.19;5051291;28;20200;-67
2023/03/23 03:47:00;;;;;;;0.50;0.50;;;;;;;8.61;100.00;99443.25;5033156;28;20216;-67
2023/03/23 03:49:27;;;;;;;0.40;0.40;;;;;;;8.54;100.00;99434.03;5039602;28;21212;-67
2023/03/23 03:51:56;;;;;;;0.50;0.50;;;;;;;8.59;100.00;99445.84;5039888;28;20205;-65
2023/03/23 03:54:22;;;;;;;0.67;0.67;;;;;;;8.54;100.00;99447.66;5032301;28;20205;-67
2023/03/23 03:56:51;;;;;;;0.50;0.50;;;;;;;8.57;100.00;99436.50;5052170;28;20204;-67
2023/03/23 03:59:18;;;;;;;0.70;0.70;;;;;;;8.43;100.00;99435.09;5044747;28;20271;-67
2023/03/23 04:01:45;;;;;;;0.40;0.40;;;;;;;8.49;100.00;99443.50;5033051;28;20200;-67
2023/03/23 04:04:12;;;;;;;0.70;0.70;;;;;;;8.48;100.00;99445.22;5046867;28;20664;-66
2023/03/23 04:06:39;;;;;;;0.50;0.50;;;;;;;8.49;100.00;99453.72;5028900;28;20592;-67
2023/03/23 04:09:07;;;;;;;0.40;0.40;;;;;;;8.47;100.00;99445.25;5030594;28;20204;-66
2023/03/23 04:11:34;;;;;;;0.50;0.50;;;;;;;8.52;100.00;99453.66;5036755;28;20202;-67
2023/03/23 04:14:02;;;;;;;0.67;0.67;;;;;;;8.51;100.00;99457.94;5031704;28;20577;-66
2023/03/23 04:16:29;;;;;;;0.50;0.50;;;;;;;8.49;100.00;99453.72;5038384;28;20213;-67
2023/03/23 04:18:57;;;;;;;0.43;0.43;;;;;;;8.46;100.00;99446.13;5032403;28;20308;-67
2023/03/23 04:21:28;;;;;;;0.50;0.50;;;;;;;8.35;100.00;99442.09;5030345;28;20723;-67
2023/03/23 04:23:55;;;;;;;0.60;0.60;;;;;;;8.44;100.00;99448.72;5029444;28;20292;-67
2023/03/23 04:26:24;;;;;;;0.73;0.73;;;;;;;8.45;100.00;99447.84;5048837;28;20216;-66
2023/03/23 04:28:51;;;;;;;0.50;0.50;;;;;;;8.41;100.00;99456.44;5038548;28;20705;-67
2023/03/23 04:31:18;;;;;;;0.40;0.40;;;;;;;8.36;100.00;99450.59;5030876;28;20209;-67
2023/03/23 04:33:46;;;;;;;1.03;1.03;;;;;;;8.32;100.00;99461.75;5024923;28;20237;-67
2023/03/23 04:36:15;;;;;;;0.60;0.60;;;;;;;8.31;100.00;99458.34;5025296;28;20205;-67
2023/03/23 04:38:42;;;;;;;0.40;0.40;;;;;;;8.23;100.00;99454.22;5037682;28;20224;-67
2023/03/23 04:41:11;;;;;;;0.50;0.50;;;;;;;8.25;100.00;99460.13;5031284;28;20206;-67
2023/03/23 04:43:41;;;;;;;0.60;0.60;;;;;;;8.31;100.00;99471.09;5025171;28;20206;-67
2023/03/23 04:46:09;;;;;;;0.50;0.50;;;;;;;8.31;100.00;99460.88;5027679;28;20209;-67
2023/03/23 04:48:38;;;;;;;0.47;0.47;;;;;;;8.27;100.00;99464.34;5033783;28;20279;-67
2023/03/23 04:51:06;;;;;;;0.43;0.43;;;;;;;8.25;100.00;99455.88;5027251;28;20675;-67
2023/03/23 04:53:33;;;;;;;0.50;0.50;;;;;;;8.20;100.00;99459.41;5026115;28;20588;-66
2023/03/23 04:56:01;;;;;;;0.60;0.60;;;;;;;8.15;100.00;99469.69;5048891;28;20209;-67
2023/03/23 04:58:29;;;;;;;0.80;0.80;;;;;;;8.19;100.00;99470.47;5032462;28;20254;-67
2023/03/23 05:00:57;;;;;;;0.47;0.47;;;;;;;8.17;100.00;99469.69;5032398;28;20209;-67
2023/03/23 05:03:24;;;;;;;0.60;0.60;;;;;;;8.21;100.00;99466.16;5046218;28;20204;-66
2023/03/23 05:05:52;;;;;;;0.43;0.43;;;;;;;8.23;100.00;99469.56;5030335;28;20209;-67
2023/03/23 05:08:20;;;;;;;0.80;0.80;;;;;;;8.20;100.00;99478.13;5029575;28;20713;-67
2023/03/23 05:10:58;;;;;;;0.70;0.70;;;;;;;7.83;100.00;99464.34;5020925;28;20206;-67
2023/03/23 05:13:25;;;;;;;0.50;0.50;;;;;;;8.01;100.00;99481.91;5024637;28;20578;-67
2023/03/23 05:15:52;;;;;;;0.50;0.50;;;;;;;7.98;100.00;99481.91;5036940;28;20205;-67
2023/03/23 05:18:20;;;;;;;0.50;0.50;;;;;;;7.87;100.00;99478.75;5043146;28;20221;-67
2023/03/23 05:20:48;;;;;;;0.80;0.80;;;;;;;7.95;100.00;99492.19;5021087;28;20209;-67
2023/03/23 05:23:15;;;;;;;0.60;0.60;;;;;;;7.98;100.00;99492.13;5032792;28;20252;-67
2023/03/23 05:25:42;;;;;;;0.70;0.70;;;;;;;7.99;100.00;99490.44;5024661;28;20219;-66
2023/03/23 05:28:11;;;;;;;0.50;0.50;;;;;;;7.98;100.00;99471.72;5036888;28;20200;-67
2023/03/23 05:30:39;;;;;;;0.57;0.57;;;;;;;8.10;100.00;99471.50;5030681;28;20732;-67
2023/03/23 05:33:06;;;;;;;0.50;0.50;;;;;;;8.26;100.00;99483.09;5028821;28;20291;-67
2023/03/23 05:35:34;;;;;;;0.53;0.53;;;;;;;8.27;100.00;99468.63;5024444;28;20249;-67
2023/03/23 05:38:03;;;;;;;0.60;0.60;;;;;;;8.44;100.00;99492.97;5022802;28;20612;-66
2023/03/23 05:40:30;;;;;;;0.50;0.50;;;;;;;8.50;100.00;99491.19;5023564;28;20225;-67
2023/03/23 05:42:58;;;;;;;0.40;0.40;;;;;;;8.58;100.00;99496.97;5024520;28;20732;-67
2023/03/23 05:45:26;;;;;;;0.50;0.50;;;;;;;8.66;100.00;99502.78;5022602;28;20240;-67
2023/03/23 05:47:53;;;;;;;0.50;0.50;;;;;;;8.73;100.00;99504.31;5029815;28;20224;-67
2023/03/23 05:50:20;;;;;;;0.50;0.50;;;;;;;8.72;100.00;99495.84;5023384;28;20696;-67
2023/03/23 05:52:48;;;;;;;0.50;0.50;;;;;;;8.77;100.00;99506.78;5031587;28;20197;-61
2023/03/23 05:55:15;;;;;;;0.60;0.60;;;;;;;8.82;100.00;99509.25;5029147;28;20212;-62
2023/03/23 05:57:42;;;;;;;0.47;0.47;;;;;;;8.89;100.00;99526.13;5028746;28;20220;-61
2023/03/23 06:00:19;;;;;;;0.50;0.50;;;;;;;8.93;100.00;99523.47;5031899;28;20264;-61
2023/03/23 06:02:47;;;;;;;0.70;0.70;;;;;;;8.96;100.00;99527.69;5017777;28;20227;-61
2023/03/23 06:05:15;;;;;;;0.60;0.60;;;;;;;8.98;100.00;99525.94;5029323;28;20244;-62
2023/03/23 06:07:42;;;;;;;0.90;0.90;;;;;;;8.94;100.00;99520.06;5033093;28;20212;-62
2023/03/23 06:10:11;;;;;;;0.50;0.50;;;;;;;9.05;100.00;99530.03;5026664;28;20554;-66
2023/03/23 06:12:38;;;;;;;0.50;0.50;;;;;;;9.00;100.00;99513.97;5028134;28;20193;-66
2023/03/23 06:15:06;;;;;;;0.60;0.60;;;;;;;9.04;100.00;99533.47;5027157;28;20264;-66
2023/03/23 06:17:36;;;;;;;0.70;0.70;;;;;;;9.09;100.00;99533.34;5019157;28;20214;-65
2023/03/23 06:20:09;;;;;;;0.50;0.50;;;;;;;9.12;100.00;99534.13;5045353;28;20223;-65
2023/03/23 06:22:35;;;;;;;0.40;0.40;;;;;;;8.96;100.00;99518.28;5031051;28;20196;-66
2023/03/23 06:25:02;;;;;;;0.80;0.80;;;;;;;9.13;100.00;99525.59;5016611;28;20212;-67
2023/03/23 06:27:31;;;;;;;0.40;0.40;;;;;;;9.17;100.00;99527.22;5033774;28;20204;-66
2023/03/23 06:29:57;;;;;;;0.47;0.47;;;;;;;9.22;100.00;99520.28;5034888;28;20292;-66
2023/03/23 06:32:25;;;;;;;0.60;0.60;;;;;;;9.23;100.00;99521.97;5035478;28;20229;-66
2023/03/23 06:34:52;;;;;;;1.07;1.07;;;;;;;9.40;100.00;99519.84;5041616;28;20208;-67
2023/03/23 06:37:19;;;;;;;0.50;0.50;;;;;;;9.58;100.00;99527.97;5042975;28;20201;-67
2023/03/23 06:39:48;;;;;;;0.53;0.53;;;;;;;9.73;100.00;99537.81;5053227;28;20227;-67
2023/03/23 06:42:14;;;;;;;0.57;0.57;;;;;;;9.84;100.00;99546.09;5036828;28;20273;-67
2023/03/23 06:44:43;;;;;;;0.60;0.60;;;;;;;9.81;100.00;99541.03;5039564;28;20619;-66
2023/03/23 06:47:09;;;;;;;1.37;1.37;;;;;;;9.95;100.00;99550.03;5036713;28;20215;-66
2023/03/23 06:49:36;;;;;;;0.53;0.53;;;;;;;10.05;100.00;99547.28;5034748;28;20204;-65
2023/03/23 06:52:03;;;;;;;0.53;0.53;;;;;;;10.17;100.00;99552.97;5036457;28;20258;-65
2023/03/23 06:54:30;;;;;;;0.70;0.70;;;;;;;10.36;100.00;99541.34;5035845;28;20197;-66
2023/03/23 06:56:57;;;;;;;0.40;0.40;;;;;;;10.72;100.00;99554.00;5035738;28;20193;-68
2023/03/23 06:59:24;;;;;;;0.47;0.47;;;;;;;11.00;100.00;99549.75;5043098;28;20569;-67
2023/03/23 07:01:53;;;;;;;0.47;0.47;;;;;;;11.24;100.00;99554.19;5037043;28;20266;-73
2023/03/23 07:04:20;;;;;;;0.47;0.47;;;;;;;11.56;100.00;99554.03;5034694;28;20581;-74
2023/03/23 07:06:47;;;;;;;1.37;1.37;;;;;;;11.79;100.00;99547.34;5038068;28;20232;-73
2023/03/23 07:09:14;;;;;;;0.50;0.50;;;;;;;12.08;100.00;99549.78;5032586;28;20206;-74
2023/03/23 07:11:41;;;;;;;0.60;0.60;;;;;;;12.41;100.00;99564.03;5032821;28;20666;-74
2023/03/23 07:14:09;;;;;;;0.60;0.60;;;;;;;12.61;100.00;99558.19;5036266;28;20200;-74
2023/03/23 07:16:35;;;;;;;0.50;0.50;;;;;;;12.85;100.00;99559.03;5036663;28;20213;-74
2023/03/23 07:19:04;;;;;;;0.40;0.40;;;;;;;13.03;100.00;99568.63;5032964;28;20228;-74
2023/03/23 07:21:31;;;;;;;0.53;0.53;;;;;;;13.29;100.00;99572.81;5034140;28;20244;-72
2023/03/23 07:23:57;;;;;;;0.50;0.50;;;;;;;13.50;98.66;99572.84;5044584;28;20670;-72
2023/03/23 07:26:24;;;;;;;0.40;0.40;;;;;;;13.79;98.98;99576.00;5032334;28;20734;-77
2023/03/23 07:28:51;;;;;;;0.50;0.50;;;;;;;14.03;97.13;99580.13;5034190;28;20202;-77
2023/03/23 07:31:18;;;;;;;0.50;0.50;;;;;;;14.19;96.19;99576.03;5035908;28;20197;-76
2023/03/23 07:33:45;;;;;;;0.50;0.50;;;;;;;14.34;95.34;99578.00;5030085;28;20589;-68
2023/03/23 07:36:13;;;;;;;0.60;0.60;;;;;;;14.53;92.31;99586.63;5032275;28;20235;-68
2023/03/23 07:38:41;;;;;;;0.60;0.60;;;;;;;14.65;91.68;99580.94;5028228;28;20219;-68
2023/03/23 07:41:08;;;;;;;0.57;0.57;;;;;;;14.90;90.36;99585.00;5028487;28;20208;-70
2023/03/23 07:43:35;;;;;;;0.60;0.60;;;;;;;15.09;88.58;99580.66;5038559;28;20263;-71
2023/03/23 07:46:02;;;;;;;0.57;0.57;;;;;;;15.24;86.90;99573.09;5032173;28;20198;-70
2023/03/23 07:48:29;;;;;;;0.30;0.30;;;;;;;15.39;86.62;99578.44;5031503;28;20198;-70
2023/03/23 07:50:56;;;;;;;0.57;0.57;;;;;;;15.49;86.43;99574.53;5044066;28;20196;-68
2023/03/23 07:53:24;;;;;;;0.43;0.43;;;;;;;15.60;85.48;99578.31;5029206;28;20206;-68
2023/03/23 07:55:51;;;;;;;0.80;0.80;;;;;;;15.64;84.38;99578.97;5022065;28;20222;-68
2023/03/23 08:10:56;;;;;;;0.57;0.57;;;;;;;16.90;81.89;99581.19;5127716;27;20541;-61
2023/03/23 08:13:24;;;;;;;0.40;0.40;;;;;;;16.92;82.92;99584.53;5112004;28;20241;-62
2023/03/23 08:15:51;;;;;;;0.50;0.50;;;;;;;17.08;79.35;99592.34;5108143;28;20244;-61
2023/03/23 08:18:19;;;;;;;0.70;0.70;;;;;;;16.89;76.74;99574.34;5112979;28;20194;-61
2023/03/23 08:20:46;;;;;;;0.60;0.60;;;;;;;16.96;79.86;99586.06;5110527;28;20203;-62
2023/03/23 08:23:12;;;;;;;0.90;0.90;;;;;;;16.83;79.52;99553.13;5107734;28;20215;-62
2023/03/23 08:25:39;;;;;;;0.50;0.50;;;;;;;17.07;79.38;99583.72;5107945;28;20206;-61
2023/03/23 08:28:08;;;;;;;0.50;0.50;;;;;;;17.04;81.33;99585.63;5107877;28;20237;-62
2023/03/23 08:30:37;;;;;;;0.53;0.53;;;;;;;17.09;80.70;99581.06;5109302;28;20674;-62
2023/03/23 08:33:05;;;;;;;0.40;0.40;;;;;;;17.17;78.50;99563.34;5110285;28;20217;-61
2023/03/23 08:35:32;;;;;;;0.50;0.50;;;;;;;17.32;75.74;99571.09;5112492;28;20235;-62
2023/03/23 08:37:59;;;;;;;0.80;0.80;;;;;;;17.36;77.66;99571.78;5107206;28;20570;-62
2023/03/23 08:40:26;;;;;;;0.60;0.60;;;;;;;17.26;76.15;99578.38;5107766;28;20214;-62
2023/03/23 08:42:53;;;;;;;0.67;0.67;;;;;;;17.27;77.25;99577.47;5107036;28;20751;-62
2023/03/23 08:45:25;;;;;;;0.60;0.60;;;;;;;17.38;75.71;99574.28;5107983;28;20222;-62
2023/03/23 08:47:55;;;;;;;0.53;0.53;;;;;;;17.57;77.16;99573.22;5107889;28;20203;-62
2023/03/23 08:50:24;;;;;;;0.50;0.50;;;;;;;17.74;72.93;99580.03;5106354;28;20195;-61
2023/03/23 08:52:52;;;;;;;0.40;0.40;;;;;;;17.86;71.56;99583.69;5107937;28;20247;-62
2023/03/23 08:55:19;;;;;;;0.40;0.40;;;;;;;17.90;72.79;99580.03;5107881;28;20297;-62
2023/03/23 09:10:55;;;;;;;0.40;0.40;;;;;;;18.99;66.98;99581.28;5127407;27;20569;-61
2023/03/23 09:13:22;;;;;;;0.80;0.80;;;;;;;19.02;68.02;99588.88;5127545;27;20206;-61
2023/03/23 09:15:50;;;;;;;0.50;0.50;;;;;;;18.97;66.44;99583.97;5127718;27;20202;-62
2023/03/23 09:18:17;;;;;;;0.50;0.50;;;;;;;18.98;68.71;99584.81;5128227;27;20246;-61
2023/03/23 09:20:44;;;;;;;0.40;0.40;;;;;;;18.88;67.82;99577.56;5128584;27;20227;-61
2023/03/23 09:23:12;;;;;;;0.60;0.60;;;;;;;18.49;66.98;99581.69;5127880;27;20257;-61
2023/03/23 09:25:39;;;;;;;0.50;0.50;;;;;;;18.08;69.37;99586.72;5127767;27;20572;-61
2023/03/23 09:28:07;;;;;;;0.70;0.70;;;;;;;18.03;68.02;99581.78;5122514;27;20201;-59
2023/03/23 09:30:37;;;;;;;1.00;1.00;;;;;;;17.98;68.07;99583.84;5128657;27;20214;-60
2023/03/23 09:33:05;;;;;;;0.50;0.50;;;;;;;18.21;67.01;99580.75;5127100;27;20206;-62
2023/03/23 09:35:34;;;;;;;0.50;0.50;;;;;;;18.38;68.36;99574.56;5126734;27;20255;-62
2023/03/23 09:38:01;;;;;;;0.43;0.43;;;;;;;18.35;66.85;99566.97;5127519;27;20216;-62
2023/03/23 09:40:32;;;;;;;0.60;0.60;;;;;;;18.48;66.52;99573.06;5127651;28;20216;-61
2023/03/23 09:43:22;;;;;;;0.50;0.50;;;;;;;18.47;69.22;99563.63;5127903;27;20210;-62
2023/03/23 09:45:59;;;;;;;1.03;1.03;;;;;;;18.57;66.96;99559.59;5127996;27;20196;-61
2023/03/23 09:48:35;;;;;;;0.67;0.67;;;;;;;18.33;64.85;99542.84;5128029;27;20293;-62
2023/03/23 09:51:17;;;;;;;0.30;0.30;;;;;;;18.39;64.59;99573.63;5128195;27;20204;-61
2023/03/23 09:53:49;;;;;;;0.50;0.50;;;;;;;18.56;66.76;99567.47;5127661;27;20204;-62
2023/03/23 09:56:17;;;;;;;0.73;0.73;;;;;;;18.69;68.06;99566.63;5128132;27;20201;-61
2023/03/23 09:58:52;;;;;;;0.60;0.60;;;;;;;18.69;63.99;99561.44;5124026;27;20309;-62
2023/03/23 10:01:26;;;;;;;0.40;0.40;;;;;;;18.73;65.05;99562.94;5125926;28;20207;-62
2023/03/23 10:04:01;;;;;;;0.47;0.47;;;;;;;18.80;64.03;99569.41;5125215;28;20197;-61
2023/03/23 10:06:28;;;;;;;0.50;0.50;;;;;;;18.66;61.84;99566.81;5127955;27;20577;-62
2023/03/23 10:08:58;;;;;;;0.50;0.50;;;;;;;18.74;62.07;99546.41;5127636;27;20215;-61
2023/03/23 10:11:41;;;;;;;0.40;0.40;;;;;;;18.67;64.38;99554.69;5116145;27;20203;-60
2023/03/23 10:14:20;;;;;;;0.40;0.40;;;;;;;18.63;63.53;99560.97;5112550;28;20559;-60
2023/03/23 10:16:56;;;;;;;0.50;0.50;;;;;;;18.75;65.24;99550.69;5114079;28;20262;-62
2023/03/23 10:19:32;;;;;;;0.50;0.50;;;;;;;18.73;63.45;99546.50;5111760;28;20222;-61
2023/03/23 10:22:04;;;;;;;0.30;0.30;;;;;;;18.72;63.40;99545.69;5109931;28;20211;-60
2023/03/23 10:24:37;;;;;;;1.00;0.77;;;;;;;18.82;62.96;99546.78;5113727;28;20206;-61
2023/03/23 10:27:14;;;;;;;0.73;0.73;;;;;;;18.90;63.68;99524.69;5114019;28;20684;-62
2023/03/23 10:29:48;;;;;;;0.50;0.50;;;;;;;19.12;63.40;99535.41;5112368;28;20668;-67
2023/03/23 10:32:19;;;;;;;0.50;0.50;;;;;;;19.21;64.08;99542.63;5109025;28;20214;-66
2023/03/23 10:34:50;;;;;;;0.60;0.60;;;;;;;19.42;63.61;99536.09;5111515;28;20259;-67
2023/03/23 10:37:22;;;;;;;1.57;1.57;;;;;;;19.41;62.60;99534.44;5111761;28;20212;-66
2023/03/23 10:39:54;;;;;;;0.40;0.40;;;;;;;19.46;60.91;99534.97;5111761;28;20316;-67
2023/03/23 10:42:27;;;;;;;0.60;0.60;;;;;;;19.14;61.44;99531.78;5110486;28;20656;-66
2023/03/23 10:44:57;;;;;;;0.47;0.47;;;;;;;18.83;62.19;99527.69;5109640;27;20199;-68
2023/03/23 10:47:24;;;;;;;0.70;0.70;;;;;;;18.67;61.94;99516.56;5112049;28;20214;-67
2023/03/23 10:49:55;;;;;;;0.40;0.40;;;;;;;18.96;62.64;99532.09;5112198;28;20205;-68
2023/03/23 10:52:29;;;;;;;0.43;0.43;;;;;;;19.18;61.99;99533.25;5111476;28;20205;-68
2023/03/23 10:54:58;;;;;;;0.50;0.50;;;;;;;19.25;60.50;99531.97;5110874;28;20265;-68
2023/03/23 10:57:28;;;;;;;0.40;0.40;;;;;;;19.30;60.73;99534.25;5110437;28;20201;-67
2023/03/23 11:00:05;;;;;;;0.40;0.40;;;;;;;19.12;59.28;99532.81;5107902;28;20222;-67
2023/03/23 11:02:33;;;;;;;0.40;0.40;;;;;;;19.19;59.76;99534.09;5109252;28;20632;-67
2023/03/23 11:05:03;;;;;;;0.37;0.37;;;;;;;19.22;59.06;99529.56;5111266;28;20202;-68
2023/03/23 11:07:34;;;;;;;0.60;0.60;;;;;;;19.31;61.54;99528.13;5110949;28;20278;-68
2023/03/23 11:10:15;;;;;;;0.40;0.40;;;;;;;19.37;57.66;99523.38;5110962;28;20226;-67
2023/03/23 11:12:46;;;;;;;0.60;0.60;;;;;;;19.35;58.70;99514.00;5109017;28;20204;-67
2023/03/23 11:15:27;;;;;;;1.13;1.13;;;;;;;19.27;59.22;99521.44;5110607;28;20624;-68
2023/03/23 11:17:58;;;;;;;0.50;0.50;;;;;;;19.41;60.22;99513.63;5110633;28;20192;-67
2023/03/23 11:20:26;;;;;;;0.40;0.40;;;;;;;19.52;58.99;99512.94;5112234;28;20222;-68
2023/03/23 11:22:53;;;;;;;0.40;0.40;;;;;;;19.24;59.68;99516.44;5110589;28;20254;-67
2023/03/23 11:25:20;;;;;;;0.40;0.40;;;;;;;19.20;59.97;99509.75;5111974;28;20201;-68
2023/03/23 11:27:48;;;;;;;0.40;0.40;;;;;;;19.16;60.90;99508.31;5111607;28;20207;-68
2023/03/23 11:30:24;;;;;;;0.40;0.40;;;;;;;19.11;60.96;99511.19;5111701;28;20684;-67
2023/03/23 11:32:53;;;;;;;1.20;0.73;;;;;;;19.14;61.35;99510.16;5111679;28;20680;-67
2023/03/23 11:35:22;;;;;;;0.40;0.40;;;;;;;19.18;62.03;99507.28;5111879;28;20249;-68
2023/03/23 11:37:52;;;;;;;0.40;0.40;;;;;;;19.20;61.55;99509.75;5111276;28;20205;-67
2023/03/23 11:40:22;;;;;;;0.40;0.40;;;;;;;19.20;61.07;99505.41;5111468;28;20257;-68
2023/03/23 11:42:50;;;;;;;0.60;0.60;;;;;;;19.11;61.43;99502.56;5111677;28;20217;-68
2023/03/23 11:45:23;;;;;;;0.30;0.30;;;;;;;18.97;61.39;99492.19;5110142;28;20280;-68
2023/03/23 11:48:08;;;;;;;0.63;0.63;;;;;;;18.88;62.74;99478.03;5111403;28;20199;-67
2023/03/23 11:50:37;;;;;;;0.50;0.50;;;;;;;18.67;61.88;99500.16;5111234;28;20202;-67
2023/03/23 11:53:16;;;;;;;0.40;0.40;;;;;;;18.70;61.72;99499.97;5111081;28;20201;-67
2023/03/23 11:55:57;;;;;;;0.50;0.50;;;;;;;18.86;62.58;99485.09;5111399;28;20743;-68
2023/03/23 11:58:24;;;;;;;0.40;0.40;;;;;;;18.90;62.37;99485.75;5110946;28;20225;-68
2023/03/23 12:00:57;;;;;;;0.90;0.90;;;;;;;18.57;61.75;99483.47;5111114;28;20323;-68
2023/03/23 12:03:46;;;;;;;0.60;0.60;;;;;;;18.57;62.37;99473.91;5110816;28;20196;-67
2023/03/23 12:06:16;;;;;;;0.50;0.50;;;;;;;18.70;62.74;99489.56;5111153;28;20625;-67
2023/03/23 12:08:57;;;;;;;0.83;0.83;;;;;;;18.56;61.61;99477.44;5111717;28;20221;-67